Latest Weather Observations for Lismore Airport

IDN60801

Issued at 3:05 pm EST Wednesday 3 September 2014 (issued every 30 minutes, with the page automatically refreshed every 10 minutes)

About weather observations | Map of weather stations | Latest weather observations for NSW | Other Formats
Station Details ID: 058214 Name: LISMORE AIRPORT AWS Lat: -28.83 Lon: 153.26 Height: 9.21 m
Data from the previous 72 hours. | See also: Recent months for locations in New South Wales
Date/Time
EST
Temp
°C
App
Temp
°C
Dew
Point
Rel
Hum
%
Delta-T
°C
Wind Press
QNH
hPa
Press
MSL
hPa
Rain
since 9 am
mm
Dir
 
Spd
km/h
Gust
km/h
Spd
kts
Gust
kts
03/03:00pm 21.9 15.0 -0.1 23 9.9 WSW 26 33 14 18 1007.9 1007.9 0.0
03/02:30pm 22.4 15.1 0.3 23 10.0 WSW 28 39 15 21 1007.9 1007.9 0.0
03/02:00pm 22.1 14.5 0.6 24 9.8 SW 30 41 16 22 1008.0 1008.0 0.0
03/01:30pm 22.0 14.9 1.1 25 9.6 WSW 28 35 15 19 1007.8 1007.8 0.0
03/01:00pm 21.1 13.0 0.9 26 9.2 WSW 33 54 18 29 1008.0 1008.0 0.0
03/12:59pm 21.4 13.4 0.6 25 9.4 WSW 32 54 17 29 1008.0 1008.0 0.0
03/12:30pm 21.2 13.8 2.0 28 8.9 W 30 46 16 25 1008.3 1008.3 0.0
03/12:00pm 20.3 13.0 2.6 31 8.3 W 30 48 16 26 1008.6 1008.6 0.0
03/11:30am 19.9 13.0 2.3 31 8.1 WSW 28 50 15 27 1009.3 1009.3 0.0
03/11:22am 20.1 12.9 2.9 32 8.1 WSW 30 50 16 27 1009.5 1009.5 0.0
03/11:00am 19.4 11.5 2.3 32 7.9 W 33 46 18 25 1009.7 1009.7 0.0
03/10:30am 18.6 10.3 2.0 33 7.5 WSW 35 50 19 27 1009.9 1009.9 0.0
03/10:00am 18.2 10.3 2.1 34 7.3 WSW 33 44 18 24 1009.8 1009.8 0.0
03/09:30am 17.5 10.6 2.7 37 6.8 W 28 39 15 21 1010.3 1010.3 0.0
03/09:00am 16.8 10.7 2.8 39 6.4 WSW 24 35 13 19 1010.5 1010.5 0.0
03/08:30am 15.9 9.0 2.7 41 6.0 W 28 43 15 23 1010.2 1010.2 0.0
03/08:00am 15.0 9.5 1.9 41 5.8 W 20 32 11 17 1010.5 1010.5 0.0
03/07:30am 14.5 8.2 1.8 42 5.5 W 24 35 13 19 1010.3 1010.3 0.0
03/07:00am 13.5 6.8 1.2 43 5.3 W 26 35 14 19 1010.2 1010.2 0.0
03/06:30am 12.6 6.6 1.0 45 4.9 W 22 32 12 17 1010.3 1010.3 0.0
03/06:00am 12.4 6.3 0.5 44 5.0 WNW 22 35 12 19 1009.6 1009.6 0.0
03/05:30am 12.1 6.4 0.5 45 4.8 W 20 28 11 15 1010.0 - 0.0
03/05:00am 12.0 7.2 0.5 45 4.8 WNW 15 22 8 12 1009.9 1009.9 0.0
03/04:30am 12.0 6.4 1.3 48 4.5 WNW 20 26 11 14 1009.4 - 0.0
03/04:00am 10.6 5.7 1.7 54 3.7 NW 17 20 9 11 1009.3 1009.3 0.0
03/03:30am 11.6 6.7 1.8 51 4.2 NW 17 20 9 11 1009.4 - 0.0
03/03:00am 11.8 7.2 1.4 49 4.4 WNW 15 20 8 11 1009.8 1009.8 0.0
03/02:30am 12.0 7.3 1.1 47 4.6 W 15 20 8 11 1010.2 - 0.0
03/02:00am 13.0 8.3 0.7 43 5.2 W 15 24 8 13 1010.5 1010.5 0.0
03/01:30am 13.1 7.6 0.8 43 5.2 W 19 32 10 17 1010.7 - 0.0
03/01:00am 13.7 7.7 1.0 42 5.4 W 22 33 12 18 1011.0 1011.0 0.0
03/12:30am 14.5 7.7 1.1 40 5.8 W 26 39 14 21 1011.1 - 0.0
03/12:00am 15.0 7.9 1.2 39 6.0 W 28 35 15 19 1011.4 1011.4 0.0
 
Date/Time
EST
Temp
°C
App
Temp
°C
Dew
Point
Rel
Hum
%
Delta-T
°C
Wind Press
QNH
hPa
Press
MSL
hPa
Rain
since 9 am
mm
Dir
 
Spd
km/h
Gust
km/h
Spd
kts
Gust
kts
02/11:30pm 14.6 8.3 1.8 42 5.6 W 24 35 13 19 1011.3 - 0.0
02/11:00pm 15.0 8.8 1.9 41 5.8 W 24 32 13 17 1011.5 1011.5 0.0
02/10:30pm 15.8 8.7 1.2 37 6.4 W 28 41 15 22 1011.3 - 0.0
02/10:00pm 15.8 8.8 1.9 39 6.2 W 28 39 15 21 1011.4 1011.4 0.0
02/09:30pm 15.9 10.0 2.0 39 6.2 W 22 32 12 17 1011.5 - 0.0
02/09:00pm 16.6 9.1 1.5 36 6.7 W 30 44 16 24 1011.3 1011.3 0.0
02/08:30pm 17.3 10.2 1.3 34 7.1 W 28 44 15 24 1011.2 - 0.0
02/08:20pm 17.2 10.1 1.6 35 6.9 W 28 46 15 25 1011.2 - 0.0
02/08:00pm 17.9 9.5 1.8 34 7.3 W 35 52 19 28 1011.0 1011.0 0.0
02/07:56pm 18.1 10.3 1.6 33 7.4 W 32 52 17 28 1010.8 - 0.0
02/07:30pm 18.2 10.3 1.3 32 7.5 W 32 43 17 23 1010.3 - 0.0
02/07:06pm 18.9 11.1 1.4 31 7.9 W 32 50 17 27 1010.0 - 0.0
02/07:00pm 19.1 11.3 1.6 31 7.9 W 32 46 17 25 1009.9 1009.9 0.0
02/06:43pm 19.2 12.3 2.6 33 7.7 W 28 46 15 25 1009.6 - 0.0
02/06:30pm 19.3 14.0 3.1 34 7.6 W 20 26 11 14 1009.3 - 0.0
02/06:00pm 19.7 13.7 3.4 34 7.7 WNW 24 35 13 19 1008.5 1008.5 0.0
02/05:30pm 21.1 13.3 2.9 30 8.6 WNW 33 52 18 28 1007.8 - 0.0
02/05:04pm 22.2 14.9 4.3 31 8.7 W 32 52 17 28 1007.1 - 0.0
02/05:00pm 22.5 14.6 4.5 31 8.9 W 35 48 19 26 1007.0 1007.0 0.0
02/04:30pm 23.8 16.2 2.6 25 10.1 WNW 32 50 17 27 1006.2 - 0.0
02/04:06pm 24.3 16.2 1.2 22 10.8 NW 33 57 18 31 1005.8 - 0.0
02/04:00pm 24.5 16.7 1.4 22 10.9 W 32 43 17 23 1005.8 1005.8 0.0
02/03:47pm 24.8 17.2 2.9 24 10.6 W 32 50 17 27 1005.7 - 0.0
02/03:30pm 25.4 17.1 4.0 25 10.6 W 37 50 20 27 1005.4 - 0.0
02/03:10pm 25.6 19.3 5.8 28 10.2 WNW 28 46 15 25 1005.0 - 0.0
02/03:00pm 25.3 19.0 5.5 28 10.1 WNW 28 41 15 22 1005.0 1005.0 0.0
02/02:30pm 27.0 21.1 5.9 26 11.0 WNW 26 35 14 19 1004.9 - 0.0
02/02:00pm 26.4 20.9 7.4 30 10.1 N 26 32 14 17 1004.9 1004.9 0.0
02/01:30pm 26.6 21.0 8.6 32 9.8 NNW 28 37 15 20 1005.6 - 0.0
02/01:00pm 25.4 19.9 9.3 36 8.8 N 28 37 15 20 1006.0 1006.0 0.0
02/12:30pm 25.6 19.0 7.7 32 9.5 NNW 32 43 17 23 1007.0 - 0.0
02/12:00pm 24.6 19.1 7.7 34 8.9 N 26 35 14 19 1007.3 1007.3 0.0
02/11:30am 23.8 18.9 7.0 34 8.7 NNW 22 35 12 19 1008.1 - 0.0
02/11:00am 23.7 18.7 8.2 37 8.2 N 24 35 13 19 1008.9 1008.9 0.0
02/10:30am 22.9 19.5 9.3 42 7.3 NNW 17 24 9 13 1009.6 - 0.0
02/10:00am 19.3 19.1 13.5 69 3.3 N 7 13 4 7 1010.5 1010.5 0.0
02/09:30am 16.3 16.0 13.4 83 1.6 N 7 11 4 6 1011.1 - 0.0
02/09:00am 14.6 14.4 13.6 94 0.6 N 7 11 4 6 1011.3 1011.3 0.0
02/08:30am 13.9 12.8 13.1 95 0.4 N 11 13 6 7 1011.7 - 0.0
02/08:00am 13.2 12.3 12.6 96 0.3 N 9 11 5 6 1011.9 1011.9 0.0
02/07:30am 12.9 12.4 12.7 99 0.1 N 7 9 4 5 1012.1 - 0.0
02/07:00am 12.4 11.0 12.2 99 0.1 N 11 11 6 6 1011.8 1011.8 0.0
02/06:30am 12.1 10.6 11.9 99 0.1 N 11 13 6 7 1011.9 - 0.0
02/06:00am 11.8 11.0 11.6 99 0.1 N 7 9 4 5 1011.9 1011.9 0.0
02/05:30am 12.3 11.6 12.1 99 0.1 N 7 9 4 5 1011.9 - 0.0
02/05:00am 12.5 11.9 12.3 99 0.1 N 7 9 4 5 1011.9 1011.9 0.0
02/04:30am 12.4 11.0 12.2 99 0.1 N 11 13 6 7 1012.0 - 0.0
02/04:00am 12.8 10.7 12.5 98 0.2 N 15 24 8 13 1012.0 1012.0 0.0
02/03:30am 12.7 10.6 12.5 99 0.1 N 15 17 8 9 1012.4 - 0.0
02/03:00am 12.2 10.4 12.0 99 0.1 N 13 15 7 8 1012.4 1012.4 0.0
02/02:30am 12.5 11.1 12.3 99 0.1 N 11 13 6 7 1012.7 - 0.0
02/02:00am 12.8 11.5 12.6 99 0.1 N 11 13 6 7 1013.0 1013.0 0.0
02/01:30am 13.1 11.2 12.9 99 0.1 N 15 17 8 9 1013.2 - 0.0
02/01:00am 12.5 10.0 12.3 99 0.1 N 17 17 9 9 1013.5 1013.5 0.0
02/12:30am 12.7 11.0 12.5 99 0.1 N 13 15 7 8 1014.2 - 0.0
02/12:00am 13.2 12.0 12.9 98 0.2 N 11 15 6 8 1014.5 1014.5 0.0
 
Date/Time
EST
Temp
°C
App
Temp
°C
Dew
Point
Rel
Hum
%
Delta-T
°C
Wind Press
QNH
hPa
Press
MSL
hPa
Rain
since 9 am
mm
Dir
 
Spd
km/h
Gust
km/h
Spd
kts
Gust
kts
01/11:30pm 13.1 11.4 12.5 96 0.3 N 13 15 7 8 1014.5 - 0.0
01/11:00pm 13.5 12.0 13.2 98 0.2 N 13 15 7 8 1014.6 1014.6 0.0
01/10:30pm 14.6 13.0 14.0 96 0.3 N 15 17 8 9 1014.7 - 0.0
01/10:00pm 14.1 12.0 13.6 97 0.3 N 17 17 9 9 1014.7 1014.7 0.0
01/09:30pm 15.5 13.9 14.0 91 0.8 N 15 17 8 9 1014.8 - 0.0
01/09:00pm 14.3 13.4 12.5 89 1.0 NNW 9 11 5 6 1015.2 1015.2 0.0
01/08:30pm 15.3 14.2 13.1 87 1.2 N 11 15 6 8 1015.0 - 0.0
01/08:00pm 17.2 15.3 14.3 83 1.7 N 17 19 9 10 1015.0 1015.0 0.0
01/07:30pm 16.8 15.3 14.1 84 1.5 N 15 17 8 9 1014.7 - 0.0
01/07:00pm 18.8 17.3 14.3 75 2.6 NNE 15 20 8 11 1014.2 1014.2 0.0
01/06:30pm 19.3 17.1 14.8 75 2.6 NE 20 28 11 15 1014.0 - 0.0
01/06:00pm 19.4 17.3 15.1 76 2.5 NE 20 28 11 15 1013.7 1013.7 0.0
01/05:30pm 20.1 17.6 15.1 73 2.9 NE 22 28 12 15 1013.6 - 0.0
01/05:00pm 21.0 18.9 15.1 69 3.5 NE 20 28 11 15 1013.7 1013.7 0.0
01/04:30pm 22.3 20.1 14.9 63 4.4 NE 20 26 11 14 1013.5 - 0.0
01/04:00pm 22.6 20.1 14.2 59 4.9 ENE 20 30 11 16 1013.3 1013.3 0.0
01/03:30pm 23.5 21.3 14.5 57 5.3 ENE 19 28 10 15 1013.3 - 0.0
01/03:00pm 24.3 22.6 14.7 55 5.7 NNE 17 22 9 12 1013.7 1013.7 0.0
01/02:30pm 24.8 22.1 9.1 37 8.5 NW 13 15 7 8 1013.9 - 0.0
01/02:00pm 25.6 21.8 9.0 35 9.0 NW 19 28 10 15 1014.4 1014.4 0.0
01/01:30pm 24.4 22.6 9.6 39 8.1 WNW 9 13 5 7 1014.8 - 0.0
01/01:00pm 24.7 23.8 11.3 43 7.5 W 7 11 4 6 1015.1 1015.1 0.0
01/12:30pm 24.8 23.8 12.4 46 7.1 NW 9 17 5 9 1015.7 - 0.0
01/12:00pm 24.5 23.9 13.4 50 6.5 N 9 19 5 10 1016.2 1016.2 0.0
01/11:30am 23.2 22.3 11.3 47 6.7 NW 7 13 4 7 1016.9 - 0.0
01/11:00am 22.7 21.3 13.5 56 5.3 NNE 13 17 7 9 1017.7 1017.7 0.0
01/10:30am 21.7 20.2 13.1 58 4.9 NNW 13 20 7 11 1018.3 - 0.0
01/10:00am 21.0 20.2 13.9 64 4.1 N 11 17 6 9 1018.6 1018.6 0.0
01/09:30am 19.9 19.2 13.1 65 3.9 NNW 9 15 5 8 1018.9 - 0.0
01/09:00am 18.9 18.5 14.2 74 2.7 N 9 13 5 7 1019.1 1019.1 0.0
01/08:30am 17.3 16.6 14.2 82 1.8 NNW 11 13 6 7 1019.3 - 0.0
01/08:00am 15.6 15.2 14.1 91 0.8 N 9 11 5 6 1019.2 1019.2 0.0
01/07:30am 14.4 13.9 13.8 96 0.3 N 9 11 5 6 1019.0 - 0.0
01/07:00am 13.5 12.8 13.2 98 0.2 N 9 11 5 6 1018.8 1018.8 0.0
01/06:30am 13.4 12.7 13.2 99 0.1 NNW 9 11 5 6 1018.6 - 0.0
01/06:00am 13.3 12.2 13.1 99 0.1 N 11 13 6 7 1018.5 1018.5 0.0
01/05:30am 13.3 12.9 13.1 99 0.1 N 7 9 4 5 1018.1 - 0.0
01/05:00am 13.5 12.0 13.2 98 0.2 N 13 15 7 8 1018.0 1018.0 0.0
01/04:30am 13.4 11.9 13.1 98 0.2 NNW 13 17 7 9 1018.0 - 0.0
01/04:00am 13.5 12.0 13.0 97 0.3 N 13 17 7 9 1017.9 1017.9 0.0
01/03:30am 13.6 12.5 13.1 97 0.3 NNW 11 13 6 7 1018.0 - 0.0
01/03:00am 13.7 13.0 13.2 97 0.3 N 9 11 5 6 1017.9 1017.9 0.0
01/02:30am 13.8 13.2 13.6 99 0.1 N 9 13 5 7 1018.1 - 0.0
01/02:00am 13.6 13.0 13.4 99 0.1 N 9 15 5 8 1018.2 1018.2 0.0
01/01:30am 13.5 12.5 13.3 99 0.1 NNW 11 13 6 7 1018.4 - 0.0
01/01:00am 13.8 13.6 13.6 99 0.1 NNE 7 9 4 5 1018.5 1018.5 0.0
01/12:30am 13.6 13.0 13.4 99 0.1 N 9 11 5 6 1018.6 - 0.0
01/12:00am 13.3 11.4 13.1 99 0.1 NNW 15 19 8 10 1018.7 1018.7 0.0
 
Date/Time
EST
Temp
°C
App
Temp
°C
Dew
Point
Rel
Hum
%
Delta-T
°C
Wind Press
QNH
hPa
Press
MSL
hPa
Rain
since 9 am
mm
Dir
 
Spd
km/h
Gust
km/h
Spd
kts
Gust
kts
31/11:30pm 13.5 13.2 13.3 99 0.1 NNW 7 13 4 7 1018.8 - 0.0
31/11:00pm 13.2 12.7 12.7 97 0.3 NW 7 11 4 6 1018.9 1018.9 0.0
31/10:30pm 14.2 13.2 13.4 95 0.4 N 11 13 6 7 1018.8 - 0.0
31/10:00pm 14.8 14.7 13.8 94 0.6 N 7 9 4 5 1018.8 1018.8 0.0
31/09:30pm 14.8 14.7 13.8 94 0.6 NNW 7 11 4 6 1018.8 - 0.0
31/09:00pm 15.1 14.9 14.8 98 0.2 N 9 13 5 7 1018.8 1018.8 0.0
31/08:30pm 14.1 13.2 13.6 97 0.3 N 11 15 6 8 1018.7 - 0.0
31/08:00pm 14.1 15.1 13.3 95 0.4 CALM 0 0 0 0 1018.5 1018.5 0.0
31/07:30pm 14.0 14.8 12.4 90 0.9 CALM 0 0 0 0 1018.4 - 0.0
31/07:00pm 15.5 16.3 12.6 83 1.6 CALM 0 0 0 0 1018.1 1018.1 0.0
31/06:30pm 16.2 16.1 13.3 83 1.6 SE 6 11 3 6 1017.5 - 0.0
31/06:00pm 16.8 15.8 13.3 80 2.0 SE 11 15 6 8 1017.3 1017.3 0.0
31/05:30pm 18.0 15.9 13.5 75 2.5 SE 17 22 9 12 1016.9 - 0.0
31/05:00pm 18.9 16.1 13.3 70 3.2 SE 20 30 11 16 1016.6 1016.6 0.0
31/04:30pm 20.1 17.8 13.1 64 4.0 ESE 17 20 9 11 1016.3 - 0.0
31/04:00pm 20.7 17.9 12.7 60 4.5 SE 19 22 10 12 1016.2 1016.2 0.0
31/03:30pm 21.3 18.6 13.0 59 4.7 ESE 19 24 10 13 1016.1 - 0.0

Other Formats:

Comma delimited format used in spreadsheet applications
http://www.bom.gov.au/fwo/IDN60801/IDN60801.94572.axf

JavaScript Object Notation format (JSON) in row-major order
http://www.bom.gov.au/fwo/IDN60801/IDN60801.94572.json